sensor_id;sensor_type;location;lat;lon;timestamp;pressure;altitude;pressure_sealevel;temperature;humidity
29825;BME280;16713;52.916;12.834;2023-02-21T00:02:14;100467.41;;;7.79;94.85
29825;BME280;16713;52.916;12.834;2023-02-21T00:04:59;100465.81;;;7.78;92.80
29825;BME280;16713;52.916;12.834;2023-02-21T00:07:44;100468.34;;;7.84;93.83
29825;BME280;16713;52.916;12.834;2023-02-21T00:10:29;100460.16;;;7.96;93.78
29825;BME280;16713;52.916;12.834;2023-02-21T00:13:13;100454.56;;;7.80;93.21
29825;BME280;16713;52.916;12.834;2023-02-21T00:15:58;100458.69;;;7.86;92.83
29825;BME280;16713;52.916;12.834;2023-02-21T00:18:43;100452.09;;;7.87;94.13
29825;BME280;16713;52.916;12.834;2023-02-21T00:21:28;100449.03;;;7.89;93.39
29825;BME280;16713;52.916;12.834;2023-02-21T00:24:14;100453.34;;;7.90;93.37
29825;BME280;16713;52.916;12.834;2023-02-21T00:27:00;100447.19;;;7.93;93.89
29825;BME280;16713;52.916;12.834;2023-02-21T00:29:46;100454.81;;;7.87;94.04
29825;BME280;16713;52.916;12.834;2023-02-21T00:32:31;100458.09;;;7.81;93.64
29825;BME280;16713;52.916;12.834;2023-02-21T00:35:17;100463.09;;;7.91;92.93
29825;BME280;16713;52.916;12.834;2023-02-21T00:38:02;100457.56;;;7.87;93.67
29825;BME280;16713;52.916;12.834;2023-02-21T00:40:49;100452.63;;;7.81;93.55
29825;BME280;16713;52.916;12.834;2023-02-21T00:43:34;100445.72;;;7.83;93.90
29825;BME280;16713;52.916;12.834;2023-02-21T00:46:19;100456.13;;;7.81;93.11
29825;BME280;16713;52.916;12.834;2023-02-21T00:49:04;100452.28;;;7.82;93.52
29825;BME280;16713;52.916;12.834;2023-02-21T00:51:50;100456.75;;;7.87;94.12
29825;BME280;16713;52.916;12.834;2023-02-21T00:54:35;100453.31;;;7.77;94.08
29825;BME280;16713;52.916;12.834;2023-02-21T00:57:20;100442.28;;;7.74;94.09
29825;BME280;16713;52.916;12.834;2023-02-21T01:00:05;100447.19;;;7.81;93.40
29825;BME280;16713;52.916;12.834;2023-02-21T01:02:50;100441.38;;;7.82;93.19
29825;BME280;16713;52.916;12.834;2023-02-21T01:05:35;100454.22;;;7.82;93.02
29825;BME280;16713;52.916;12.834;2023-02-21T01:08:20;100449.25;;;7.84;92.78
29825;BME280;16713;52.916;12.834;2023-02-21T01:11:05;100446.59;;;7.75;94.13
29825;BME280;16713;52.916;12.834;2023-02-21T01:13:50;100447.94;;;7.81;94.30
29825;BME280;16713;52.916;12.834;2023-02-21T01:16:34;100454.91;;;7.78;92.66
29825;BME280;16713;52.916;12.834;2023-02-21T01:19:25;100433.97;;;7.82;92.43
29825;BME280;16713;52.916;12.834;2023-02-21T01:22:10;100441.72;;;7.81;93.87
29825;BME280;16713;52.916;12.834;2023-02-21T01:24:55;100444.78;;;7.79;94.60
29825;BME280;16713;52.916;12.834;2023-02-21T01:27:40;100438.50;;;7.66;94.18
29825;BME280;16713;52.916;12.834;2023-02-21T01:30:24;100449.91;;;7.93;94.13
29825;BME280;16713;52.916;12.834;2023-02-21T01:33:10;100439.56;;;7.86;93.88
29825;BME280;16713;52.916;12.834;2023-02-21T01:35:55;100434.78;;;7.71;92.45
29825;BME280;16713;52.916;12.834;2023-02-21T01:38:40;100437.59;;;7.74;94.06
29825;BME280;16713;52.916;12.834;2023-02-21T01:41:24;100430.44;;;7.82;94.21
29825;BME280;16713;52.916;12.834;2023-02-21T01:44:32;100424.69;;;7.84;94.15
29825;BME280;16713;52.916;12.834;2023-02-21T01:47:15;100430.69;;;7.77;92.79
29825;BME280;16713;52.916;12.834;2023-02-21T01:50:01;100428.41;;;7.79;94.41
29825;BME280;16713;52.916;12.834;2023-02-21T01:52:47;100425.78;;;7.70;93.76
29825;BME280;16713;52.916;12.834;2023-02-21T01:55:34;100428.06;;;7.93;92.69
29825;BME280;16713;52.916;12.834;2023-02-21T01:58:21;100433.97;;;7.82;94.12
29825;BME280;16713;52.916;12.834;2023-02-21T02:01:08;100423.19;;;7.86;91.98
29825;BME280;16713;52.916;12.834;2023-02-21T02:03:54;100439.41;;;7.82;93.61
29825;BME280;16713;52.916;12.834;2023-02-21T02:06:40;100439.09;;;7.72;93.91
29825;BME280;16713;52.916;12.834;2023-02-21T02:09:25;100421.69;;;7.76;93.98
29825;BME280;16713;52.916;12.834;2023-02-21T02:12:14;100430.44;;;7.82;94.34
29825;BME280;16713;52.916;12.834;2023-02-21T02:17:44;100422.16;;;7.91;92.52
29825;BME280;16713;52.916;12.834;2023-02-21T02:20:31;100425.13;;;7.86;93.04
29825;BME280;16713;52.916;12.834;2023-02-21T02:38:28;100407.50;;;7.83;93.31
29825;BME280;16713;52.916;12.834;2023-02-21T02:43:44;100412.44;;;8.05;94.04
29825;BME280;16713;52.916;12.834;2023-02-21T02:48:49;100401.81;;;7.88;93.34
29825;BME280;16713;52.916;12.834;2023-02-21T02:51:18;100402.25;;;7.90;93.37
29825;BME280;16713;52.916;12.834;2023-02-21T02:53:45;100408.19;;;7.92;93.10
29825;BME280;16713;52.916;12.834;2023-02-21T02:56:13;100409.31;;;7.91;92.40
29825;BME280;16713;52.916;12.834;2023-02-21T02:59:25;100420.34;;;7.95;93.91
29825;BME280;16713;52.916;12.834;2023-02-21T03:12:13;100430.78;;;8.05;91.98
29825;BME280;16713;52.916;12.834;2023-02-21T03:14:59;100429.41;;;8.11;92.54
29825;BME280;16713;52.916;12.834;2023-02-21T03:17:27;100423.50;;;8.09;91.81
29825;BME280;16713;52.916;12.834;2023-02-21T03:19:55;100413.38;;;7.97;92.83
29825;BME280;16713;52.916;12.834;2023-02-21T03:22:23;100422.50;;;8.01;93.09
29825;BME280;16713;52.916;12.834;2023-02-21T03:24:51;100421.44;;;8.06;93.06
29825;BME280;16713;52.916;12.834;2023-02-21T03:27:19;100428.41;;;7.79;93.21
29825;BME280;16713;52.916;12.834;2023-02-21T03:29:47;100417.38;;;7.88;93.24
29825;BME280;16713;52.916;12.834;2023-02-21T03:34:40;100421.44;;;8.06;91.12
29825;BME280;16713;52.916;12.834;2023-02-21T03:37:08;100420.66;;;8.05;92.39
29825;BME280;16713;52.916;12.834;2023-02-21T03:39:35;100422.03;;;7.99;91.37
29825;BME280;16713;52.916;12.834;2023-02-21T03:42:01;100427.84;;;8.10;92.46
29825;BME280;16713;52.916;12.834;2023-02-21T03:44:28;100419.06;;;8.04;90.92
29825;BME280;16713;52.916;12.834;2023-02-21T03:46:54;100425.09;;;8.10;91.74
29825;BME280;16713;52.916;12.834;2023-02-21T03:49:20;100421.34;;;8.02;92.38
29825;BME280;16713;52.916;12.834;2023-02-21T03:51:47;100422.44;;;8.13;90.42
29825;BME280;16713;52.916;12.834;2023-02-21T03:54:13;100428.50;;;8.07;90.15
29825;BME280;16713;52.916;12.834;2023-02-21T03:56:39;100425.75;;;8.07;90.17
29825;BME280;16713;52.916;12.834;2023-02-21T03:59:07;100431.34;;;8.10;90.60
29825;BME280;16713;52.916;12.834;2023-02-21T04:01:34;100448.06;;;8.09;89.80
29825;BME280;16713;52.916;12.834;2023-02-21T04:04:00;100454.09;;;8.02;91.49
29825;BME280;16713;52.916;12.834;2023-02-21T04:06:26;100454.00;;;8.11;89.13
29825;BME280;16713;52.916;12.834;2023-02-21T04:08:53;100463.69;;;8.08;89.62
29825;BME280;16713;52.916;12.834;2023-02-21T04:11:20;100463.34;;;8.10;90.62
29825;BME280;16713;52.916;12.834;2023-02-21T04:13:47;100466.38;;;8.20;89.10
29825;BME280;16713;52.916;12.834;2023-02-21T04:16:13;100463.19;;;8.18;90.42
29825;BME280;16713;52.916;12.834;2023-02-21T04:18:40;100458.88;;;8.17;89.98
29825;BME280;16713;52.916;12.834;2023-02-21T04:21:06;100473.06;;;8.23;88.89
29825;BME280;16713;52.916;12.834;2023-02-21T04:23:32;100474.00;;;8.27;88.66
29825;BME280;16713;52.916;12.834;2023-02-21T04:25:59;100467.97;;;8.21;88.74
29825;BME280;16713;52.916;12.834;2023-02-21T04:28:25;100474.91;;;8.19;88.92
29825;BME280;16713;52.916;12.834;2023-02-21T04:30:51;100471.19;;;7.99;88.95
29825;BME280;16713;52.916;12.834;2023-02-21T04:33:17;100483.69;;;8.24;88.88
29825;BME280;16713;52.916;12.834;2023-02-21T04:35:44;100482.31;;;8.18;90.41
29825;BME280;16713;52.916;12.834;2023-02-21T04:38:10;100478.22;;;8.24;88.80
29825;BME280;16713;52.916;12.834;2023-02-21T04:40:36;100490.63;;;8.22;90.51
29825;BME280;16713;52.916;12.834;2023-02-21T04:43:03;100490.19;;;8.08;89.59
29825;BME280;16713;52.916;12.834;2023-02-21T04:45:29;100480.19;;;8.00;91.83
29825;BME280;16713;52.916;12.834;2023-02-21T04:47:55;100485.03;;;8.18;90.74
29825;BME280;16713;52.916;12.834;2023-02-21T04:50:22;100494.94;;;8.23;90.37
29825;BME280;16713;52.916;12.834;2023-02-21T04:52:48;100495.16;;;8.30;88.88
29825;BME280;16713;52.916;12.834;2023-02-21T04:55:15;100487.78;;;8.30;90.66
29825;BME280;16713;52.916;12.834;2023-02-21T04:57:41;100489.94;;;8.25;89.59
29825;BME280;16713;52.916;12.834;2023-02-21T05:00:09;100495.84;;;8.15;88.80
29825;BME280;16713;52.916;12.834;2023-02-21T05:02:35;100488.94;;;8.17;90.16
29825;BME280;16713;52.916;12.834;2023-02-21T05:05:02;100499.03;;;8.29;88.65
29825;BME280;16713;52.916;12.834;2023-02-21T05:07:28;100498.03;;;8.09;88.51
29825;BME280;16713;52.916;12.834;2023-02-21T05:09:54;100496.50;;;8.36;87.85
29825;BME280;16713;52.916;12.834;2023-02-21T05:12:21;100485.97;;;8.22;87.93
29825;BME280;16713;52.916;12.834;2023-02-21T05:14:47;100489.59;;;8.26;88.14
29825;BME280;16713;52.916;12.834;2023-02-21T05:17:13;100498.47;;;8.35;88.96
29825;BME280;16713;52.916;12.834;2023-02-21T05:19:40;100489.50;;;8.11;89.50
29825;BME280;16713;52.916;12.834;2023-02-21T05:22:06;100483.13;;;8.19;88.94
29825;BME280;16713;52.916;12.834;2023-02-21T05:24:33;100485.16;;;8.22;88.93
29825;BME280;16713;52.916;12.834;2023-02-21T05:26:59;100490.84;;;8.17;89.56
29825;BME280;16713;52.916;12.834;2023-02-21T05:29:26;100497.78;;;8.26;89.08
29825;BME280;16713;52.916;12.834;2023-02-21T05:31:52;100494.34;;;8.29;88.76
29825;BME280;16713;52.916;12.834;2023-02-21T05:34:19;100501.78;;;8.29;87.95
29825;BME280;16713;52.916;12.834;2023-02-21T05:36:45;100494.28;;;8.26;87.97
29825;BME280;16713;52.916;12.834;2023-02-21T05:39:12;100502.13;;;8.27;88.35
29825;BME280;16713;52.916;12.834;2023-02-21T05:41:38;100506.31;;;8.25;88.00
29825;BME280;16713;52.916;12.834;2023-02-21T05:44:10;100501.09;;;8.20;87.97
29825;BME280;16713;52.916;12.834;2023-02-21T05:46:37;100510.19;;;8.24;86.79
29825;BME280;16713;52.916;12.834;2023-02-21T05:49:04;100505.19;;;8.14;88.54
29825;BME280;16713;52.916;12.834;2023-02-21T05:51:35;100509.75;;;8.22;88.61
29825;BME280;16713;52.916;12.834;2023-02-21T05:54:02;100513.84;;;8.16;87.99
29825;BME280;16713;52.916;12.834;2023-02-21T05:56:28;100516.00;;;8.10;87.62
29825;BME280;16713;52.916;12.834;2023-02-21T05:58:55;100510.22;;;8.00;88.87
29825;BME280;16713;52.916;12.834;2023-02-21T06:01:21;100518.19;;;8.05;88.48
29825;BME280;16713;52.916;12.834;2023-02-21T06:03:48;100517.97;;;7.98;87.88
29825;BME280;16713;52.916;12.834;2023-02-21T06:06:14;100524.91;;;7.95;87.10
29825;BME280;16713;52.916;12.834;2023-02-21T06:08:41;100517.97;;;7.86;88.43
29825;BME280;16713;52.916;12.834;2023-02-21T06:11:10;100530.91;;;8.01;86.66
29825;BME280;16713;52.916;12.834;2023-02-21T06:13:37;100532.97;;;8.04;88.49
29825;BME280;16713;52.916;12.834;2023-02-21T06:16:03;100539.13;;;8.01;86.92
29825;BME280;16713;52.916;12.834;2023-02-21T06:18:30;100539.13;;;8.01;86.88
29825;BME280;16713;52.916;12.834;2023-02-21T06:20:56;100541.50;;;8.02;87.07
29825;BME280;16713;52.916;12.834;2023-02-21T06:23:23;100541.28;;;7.95;87.61
29825;BME280;16713;52.916;12.834;2023-02-21T06:25:49;100550.97;;;8.05;87.50
29825;BME280;16713;52.916;12.834;2023-02-21T06:28:15;100550.59;;;7.94;86.91
29825;BME280;16713;52.916;12.834;2023-02-21T06:30:42;100548.78;;;7.86;87.24
29825;BME280;16713;52.916;12.834;2023-02-21T06:33:09;100544.38;;;7.94;86.46
29825;BME280;16713;52.916;12.834;2023-02-21T06:35:35;100551.34;;;7.82;85.21
29825;BME280;16713;52.916;12.834;2023-02-21T06:38:02;100560.97;;;8.01;84.89
29825;BME280;16713;52.916;12.834;2023-02-21T06:40:28;100566.53;;;8.04;85.89
29825;BME280;16713;52.916;12.834;2023-02-21T06:42:54;100568.69;;;7.99;85.20
29825;BME280;16713;52.916;12.834;2023-02-21T06:45:21;100566.09;;;8.02;86.05
29825;BME280;16713;52.916;12.834;2023-02-21T06:47:47;100573.94;;;8.04;84.96
29825;BME280;16713;52.916;12.834;2023-02-21T06:50:13;100579.19;;;8.09;85.13
29825;BME280;16713;52.916;12.834;2023-02-21T06:52:40;100580.75;;;7.98;85.97
29825;BME280;16713;52.916;12.834;2023-02-21T06:55:06;100571.88;;;8.01;85.54
29825;BME280;16713;52.916;12.834;2023-02-21T06:57:32;100587.47;;;7.88;86.04
29825;BME280;16713;52.916;12.834;2023-02-21T06:59:59;100589.75;;;7.98;84.74
29825;BME280;16713;52.916;12.834;2023-02-21T07:02:25;100601.16;;;8.12;84.81
29825;BME280;16713;52.916;12.834;2023-02-21T07:04:51;100601.13;;;7.88;84.56
29825;BME280;16713;52.916;12.834;2023-02-21T07:07:18;100608.41;;;7.96;85.77
29825;BME280;16713;52.916;12.834;2023-02-21T07:09:44;100626.84;;;7.99;84.25
29825;BME280;16713;52.916;12.834;2023-02-21T07:12:10;100632.78;;;8.01;84.36
29825;BME280;16713;52.916;12.834;2023-02-21T07:14:37;100631.28;;;8.04;84.41
29825;BME280;16713;52.916;12.834;2023-02-21T07:17:03;100633.47;;;8.10;83.51
29825;BME280;16713;52.916;12.834;2023-02-21T07:19:29;100642.69;;;8.06;85.25
29825;BME280;16713;52.916;12.834;2023-02-21T07:21:56;100627.44;;;8.05;84.07
29825;BME280;16713;52.916;12.834;2023-02-21T07:24:22;100649.63;;;8.15;82.87
29825;BME280;16713;52.916;12.834;2023-02-21T07:26:48;100644.72;;;8.09;81.51
29825;BME280;16713;52.916;12.834;2023-02-21T07:29:15;100646.00;;;8.11;81.46
29825;BME280;16713;52.916;12.834;2023-02-21T07:31:42;100659.09;;;8.18;81.17
29825;BME280;16713;52.916;12.834;2023-02-21T07:34:09;100660.66;;;8.07;79.15
29825;BME280;16713;52.916;12.834;2023-02-21T07:36:37;100659.41;;;8.04;79.28
29825;BME280;16713;52.916;12.834;2023-02-21T07:39:05;100661.13;;;8.09;78.36
29825;BME280;16713;52.916;12.834;2023-02-21T07:41:31;100664.06;;;8.04;78.77
29825;BME280;16713;52.916;12.834;2023-02-21T07:43:58;100680.22;;;7.97;75.98
29825;BME280;16713;52.916;12.834;2023-02-21T07:46:25;100677.72;;;8.04;78.58
29825;BME280;16713;52.916;12.834;2023-02-21T07:48:52;100682.50;;;7.95;78.28
29825;BME280;16713;52.916;12.834;2023-02-21T07:51:19;100678.41;;;8.01;76.21
29825;BME280;16713;52.916;12.834;2023-02-21T07:53:45;100688.22;;;8.02;77.69
29825;BME280;16713;52.916;12.834;2023-02-21T07:56:12;100695.84;;;8.08;76.76
29825;BME280;16713;52.916;12.834;2023-02-21T07:58:38;100697.78;;;8.08;77.41
29825;BME280;16713;52.916;12.834;2023-02-21T08:01:05;100711.91;;;8.10;78.31
29825;BME280;16713;52.916;12.834;2023-02-21T08:03:31;100731.03;;;8.10;77.98
29825;BME280;16713;52.916;12.834;2023-02-21T08:05:58;100725.03;;;7.96;76.96
29825;BME280;16713;52.916;12.834;2023-02-21T08:08:25;100726.44;;;8.02;76.84
29825;BME280;16713;52.916;12.834;2023-02-21T08:10:51;100727.75;;;7.96;76.04
29825;BME280;16713;52.916;12.834;2023-02-21T08:13:17;100732.31;;;7.92;75.36
29825;BME280;16713;52.916;12.834;2023-02-21T08:15:43;100730.41;;;7.92;74.65
29825;BME280;16713;52.916;12.834;2023-02-21T08:18:13;100739.50;;;7.96;73.89
29825;BME280;16713;52.916;12.834;2023-02-21T08:20:43;100743.59;;;8.02;75.31
29825;BME280;16713;52.916;12.834;2023-02-21T08:23:10;100737.56;;;7.97;72.19
29825;BME280;16713;52.916;12.834;2023-02-21T08:25:36;100745.75;;;7.97;72.73
29825;BME280;16713;52.916;12.834;2023-02-21T08:28:02;100734.28;;;7.82;73.32
29825;BME280;16713;52.916;12.834;2023-02-21T08:30:29;100735.28;;;7.78;72.47
29825;BME280;16713;52.916;12.834;2023-02-21T08:32:55;100733.22;;;7.96;73.19
29825;BME280;16713;52.916;12.834;2023-02-21T08:35:22;100733.81;;;8.01;71.77
29825;BME280;16713;52.916;12.834;2023-02-21T08:37:49;100747.00;;;7.99;72.45
29825;BME280;16713;52.916;12.834;2023-02-21T08:40:18;100751.22;;;7.97;72.67
29825;BME280;16713;52.916;12.834;2023-02-21T08:42:51;100751.94;;;8.06;71.99
29825;BME280;16713;52.916;12.834;2023-02-21T08:45:19;100747.94;;;7.82;70.74
29825;BME280;16713;52.916;12.834;2023-02-21T08:47:45;100755.69;;;8.01;69.84
29825;BME280;16713;52.916;12.834;2023-02-21T08:50:12;100757.44;;;8.18;71.24
29825;BME280;16713;52.916;12.834;2023-02-21T08:52:39;100758.78;;;8.12;70.48
29825;BME280;16713;52.916;12.834;2023-02-21T08:55:05;100765.41;;;8.23;70.33
29825;BME280;16713;52.916;12.834;2023-02-21T08:57:32;100769.06;;;8.27;69.34
29825;BME280;16713;52.916;12.834;2023-02-21T08:59:59;100770.97;;;8.14;71.43
29825;BME280;16713;52.916;12.834;2023-02-21T09:02:26;100773.94;;;8.21;70.39
29825;BME280;16713;52.916;12.834;2023-02-21T09:04:56;100778.41;;;8.26;68.78
29825;BME280;16713;52.916;12.834;2023-02-21T09:07:22;100785.69;;;8.22;69.21
29825;BME280;16713;52.916;12.834;2023-02-21T09:09:49;100785.00;;;8.25;69.63
29825;BME280;16713;52.916;12.834;2023-02-21T09:12:15;100784.84;;;8.09;68.42
29825;BME280;16713;52.916;12.834;2023-02-21T09:14:42;100790.16;;;8.06;67.59
29825;BME280;16713;52.916;12.834;2023-02-21T09:17:10;100794.63;;;8.10;69.39
29825;BME280;16713;52.916;12.834;2023-02-21T09:19:37;100794.03;;;8.05;69.49
29825;BME280;16713;52.916;12.834;2023-02-21T09:22:05;100802.88;;;8.22;69.90
29825;BME280;16713;52.916;12.834;2023-02-21T09:24:31;100811.41;;;8.21;69.28
29825;BME280;16713;52.916;12.834;2023-02-21T09:26:58;100823.16;;;8.01;69.86
29825;BME280;16713;52.916;12.834;2023-02-21T09:29:25;100813.19;;;8.17;69.23
29825;BME280;16713;52.916;12.834;2023-02-21T09:31:56;100817.78;;;8.25;68.57
29825;BME280;16713;52.916;12.834;2023-02-21T09:34:23;100828.28;;;8.02;68.03
29825;BME280;16713;52.916;12.834;2023-02-21T09:36:49;100829.66;;;8.29;67.15
29825;BME280;16713;52.916;12.834;2023-02-21T09:39:16;100842.88;;;8.39;66.56
29825;BME280;16713;52.916;12.834;2023-02-21T09:41:43;100838.22;;;8.39;67.99
29825;BME280;16713;52.916;12.834;2023-02-21T09:44:11;100838.00;;;8.44;67.20
29825;BME280;16713;52.916;12.834;2023-02-21T09:46:39;100843.75;;;8.63;66.88
29825;BME280;16713;52.916;12.834;2023-02-21T09:49:20;100854.53;;;8.80;66.56
29825;BME280;16713;52.916;12.834;2023-02-21T09:51:47;100856.25;;;8.85;67.45
29825;BME280;16713;52.916;12.834;2023-02-21T09:54:36;100861.59;;;8.93;67.01
29825;BME280;16713;52.916;12.834;2023-02-21T09:57:01;100874.97;;;9.07;67.72
29825;BME280;16713;52.916;12.834;2023-02-21T09:59:28;100876.66;;;9.11;66.61
29825;BME280;16713;52.916;12.834;2023-02-21T10:07:01;100893.47;;;9.22;67.91
29825;BME280;16713;52.916;12.834;2023-02-21T10:17:45;100879.97;;;9.05;64.58
29825;BME280;16713;52.916;12.834;2023-02-21T10:19:53;100890.34;;;8.99;63.88
29825;BME280;16713;52.916;12.834;2023-02-21T10:22:24;100887.69;;;8.91;63.83
29825;BME280;16713;52.916;12.834;2023-02-21T10:24:52;100904.78;;;9.00;63.72
29825;BME280;16713;52.916;12.834;2023-02-21T10:27:20;100903.44;;;8.94;63.62
29825;BME280;16713;52.916;12.834;2023-02-21T10:32:17;100911.50;;;8.90;65.44
29825;BME280;16713;52.916;12.834;2023-02-21T10:34:44;100905.81;;;8.95;64.99
29825;BME280;16713;52.916;12.834;2023-02-21T10:39:43;100909.69;;;8.94;63.83
29825;BME280;16713;52.916;12.834;2023-02-21T10:42:12;100898.03;;;8.85;64.34
29825;BME280;16713;52.916;12.834;2023-02-21T10:44:39;100905.25;;;9.02;64.93
29825;BME280;16713;52.916;12.834;2023-02-21T10:52:23;100903.84;;;8.84;63.40
29825;BME280;16713;52.916;12.834;2023-02-21T10:55:03;100908.78;;;8.90;63.40
29825;BME280;16713;52.916;12.834;2023-02-21T10:57:30;100913.53;;;8.81;63.18
29825;BME280;16713;52.916;12.834;2023-02-21T10:59:59;100893.84;;;8.88;63.98
29825;BME280;16713;52.916;12.834;2023-02-21T11:02:28;100916.41;;;8.97;63.53
29825;BME280;16713;52.916;12.834;2023-02-21T11:04:55;100912.19;;;8.87;64.28
29825;BME280;16713;52.916;12.834;2023-02-21T11:07:31;100915.72;;;8.88;62.18
29825;BME280;16713;52.916;12.834;2023-02-21T11:09:58;100909.38;;;8.96;62.26
29825;BME280;16713;52.916;12.834;2023-02-21T11:12:25;100906.50;;;8.92;62.19
29825;BME280;16713;52.916;12.834;2023-02-21T11:22:19;100918.13;;;9.01;63.55
29825;BME280;16713;52.916;12.834;2023-02-21T11:24:54;100910.53;;;9.07;63.65
29825;BME280;16713;52.916;12.834;2023-02-21T11:27:22;100917.16;;;9.06;63.87
29825;BME280;16713;52.916;12.834;2023-02-21T11:29:50;100910.59;;;8.98;62.47
29825;BME280;16713;52.916;12.834;2023-02-21T11:32:36;100912.66;;;9.01;62.64
29825;BME280;16713;52.916;12.834;2023-02-21T11:37:30;100919.88;;;9.06;61.71
29825;BME280;16713;52.916;12.834;2023-02-21T11:39:57;100919.41;;;9.04;61.48
29825;BME280;16713;52.916;12.834;2023-02-21T11:42:30;100919.19;;;9.09;62.90
29825;BME280;16713;52.916;12.834;2023-02-21T11:45:10;100927.56;;;9.25;62.40
29825;BME280;16713;52.916;12.834;2023-02-21T11:47:43;100910.44;;;9.15;61.79
29825;BME280;16713;52.916;12.834;2023-02-21T11:50:18;100921.75;;;9.26;62.83
29825;BME280;16713;52.916;12.834;2023-02-21T11:55:17;100922.16;;;9.16;62.12
29825;BME280;16713;52.916;12.834;2023-02-21T11:58:00;100924.16;;;9.28;61.59
29825;BME280;16713;52.916;12.834;2023-02-21T12:00:29;100918.97;;;9.14;61.70
29825;BME280;16713;52.916;12.834;2023-02-21T12:11:05;100925.81;;;9.20;60.63
29825;BME280;16713;52.916;12.834;2023-02-21T12:29:24;100937.63;;;9.45;61.73
29825;BME280;16713;52.916;12.834;2023-02-21T12:32:01;100938.50;;;9.25;62.24
29825;BME280;16713;52.916;12.834;2023-02-21T12:42:10;100949.03;;;9.47;60.77
29825;BME280;16713;52.916;12.834;2023-02-21T12:47:27;100934.19;;;9.24;62.80
29825;BME280;16713;52.916;12.834;2023-02-21T12:55:04;100941.63;;;9.02;62.58
29825;BME280;16713;52.916;12.834;2023-02-21T12:57:38;100940.38;;;9.00;61.82
29825;BME280;16713;52.916;12.834;2023-02-21T13:08:00;100957.78;;;8.95;62.28
29825;BME280;16713;52.916;12.834;2023-02-21T13:10:29;100955.06;;;8.95;62.37
29825;BME280;16713;52.916;12.834;2023-02-21T13:12:59;100952.25;;;9.04;62.33
29825;BME280;16713;52.916;12.834;2023-02-21T13:15:29;100953.25;;;8.99;62.57
29825;BME280;16713;52.916;12.834;2023-02-21T13:20:22;100954.38;;;8.98;62.80
29825;BME280;16713;52.916;12.834;2023-02-21T13:26:04;100962.69;;;8.90;61.97
29825;BME280;16713;52.916;12.834;2023-02-21T13:28:36;100955.28;;;8.90;63.38
29825;BME280;16713;52.916;12.834;2023-02-21T13:31:05;100957.44;;;8.85;63.47
29825;BME280;16713;52.916;12.834;2023-02-21T13:33:40;100958.94;;;8.94;63.60
29825;BME280;16713;52.916;12.834;2023-02-21T13:41:25;100952.97;;;8.80;63.22
29825;BME280;16713;52.916;12.834;2023-02-21T13:43:53;100952.88;;;8.89;63.17
29825;BME280;16713;52.916;12.834;2023-02-21T13:46:39;100943.03;;;8.76;65.40
29825;BME280;16713;52.916;12.834;2023-02-21T13:52:12;100952.38;;;8.75;63.15
29825;BME280;16713;52.916;12.834;2023-02-21T13:57:28;100945.56;;;8.81;63.58
29825;BME280;16713;52.916;12.834;2023-02-21T13:59:55;100948.63;;;8.79;63.78
29825;BME280;16713;52.916;12.834;2023-02-21T14:02:22;100959.91;;;8.78;64.85
29825;BME280;16713;52.916;12.834;2023-02-21T14:04:57;100960.38;;;8.80;63.20
29825;BME280;16713;52.916;12.834;2023-02-21T14:10:23;100954.22;;;8.83;64.23
29825;BME280;16713;52.916;12.834;2023-02-21T14:12:55;100952.53;;;8.90;63.85
29825;BME280;16713;52.916;12.834;2023-02-21T14:15:22;100949.66;;;8.87;62.74
29825;BME280;16713;52.916;12.834;2023-02-21T14:17:49;100947.50;;;8.80;62.73
29825;BME280;16713;52.916;12.834;2023-02-21T14:20:18;100964.66;;;9.01;64.05
29825;BME280;16713;52.916;12.834;2023-02-21T14:22:45;100974.13;;;9.04;64.58
29825;BME280;16713;52.916;12.834;2023-02-21T14:25:19;100963.13;;;8.92;62.16
29825;BME280;16713;52.916;12.834;2023-02-21T14:27:46;100965.31;;;8.98;62.58
29825;BME280;16713;52.916;12.834;2023-02-21T14:30:24;100969.00;;;9.02;63.50
29825;BME280;16713;52.916;12.834;2023-02-21T14:32:52;100964.22;;;8.99;64.84
29825;BME280;16713;52.916;12.834;2023-02-21T14:35:37;100964.31;;;9.03;64.33
29825;BME280;16713;52.916;12.834;2023-02-21T14:38:15;100965.13;;;9.03;63.13
29825;BME280;16713;52.916;12.834;2023-02-21T14:40:56;100959.84;;;8.98;63.37
29825;BME280;16713;52.916;12.834;2023-02-21T14:43:35;100948.47;;;8.96;62.56
29825;BME280;16713;52.916;12.834;2023-02-21T15:02:06;100949.72;;;8.99;65.16
29825;BME280;16713;52.916;12.834;2023-02-21T15:04:40;100954.59;;;8.93;64.72
29825;BME280;16713;52.916;12.834;2023-02-21T15:07:19;100957.25;;;9.02;64.32
29825;BME280;16713;52.916;12.834;2023-02-21T15:12:34;100966.34;;;8.94;65.12
29825;BME280;16713;52.916;12.834;2023-02-21T15:15:01;100963.88;;;9.01;64.80
29825;BME280;16713;52.916;12.834;2023-02-21T15:17:27;100959.03;;;8.86;66.14
29825;BME280;16713;52.916;12.834;2023-02-21T15:20:03;100958.81;;;8.91;65.82
29825;BME280;16713;52.916;12.834;2023-02-21T15:22:30;100967.81;;;8.91;64.41
29825;BME280;16713;52.916;12.834;2023-02-21T15:27:23;100968.16;;;8.90;65.92
29825;BME280;16713;52.916;12.834;2023-02-21T15:30:06;100975.56;;;8.89;64.92
29825;BME280;16713;52.916;12.834;2023-02-21T15:32:34;100970.78;;;8.86;66.21
29825;BME280;16713;52.916;12.834;2023-02-21T15:35:05;100958.75;;;8.79;66.62
29825;BME280;16713;52.916;12.834;2023-02-21T15:37:32;100968.59;;;8.92;64.72
29825;BME280;16713;52.916;12.834;2023-02-21T15:40:01;100969.28;;;8.89;64.97
29825;BME280;16713;52.916;12.834;2023-02-21T15:42:30;100971.34;;;8.92;65.19
29825;BME280;16713;52.916;12.834;2023-02-21T15:44:58;100970.91;;;8.90;65.11
29825;BME280;16713;52.916;12.834;2023-02-21T15:47:26;100962.91;;;8.85;65.11
29825;BME280;16713;52.916;12.834;2023-02-21T15:50:39;100968.81;;;8.87;64.91
29825;BME280;16713;52.916;12.834;2023-02-21T15:52:45;100954.16;;;8.71;65.48